Terminal Aerodrome Forecast
Issued by NWS

Home | Current Version | Previous Version | Text Only | Print | Product List | Glossary On
Versions: 1 2 3 4 5 6 7 8 9 10 11 12 13 14
000
FTUS43 KMQT 291124
TAFIWD
TAF
KIWD 291124Z 2912/3012 26008KT P6SM VCSH SCT003 OVC008
      TEMPO 2912/2914 6SM -RA SCT008 BKN011
     FM291400 29010KT 6SM BR VCSH OVC003
     FM291900 32011KT 6SM BR VCSH OVC004
     FM300000 33004KT 5SM BR SCT004 OVC008
     FM300500 VRB03KT 3SM BR BKN003=

USA.gov is the U.S. government's official web portal to all federal, state and local government web resources and services.